Time;durP1;ratioP1;P1;durP2;ratioP2;P2;SDS_P1;SDS_P2;PMS_P1;PMS_P2;Temp;Humidity;BMP_temperature;BMP_pressure;BME280_temperature;BME280_humidity;BME280_pressure;Samples;Min_cycle;Max_cycle;Signal;HPM_P1;HPM_P2
2022/01/02 00:00:29;;;;;;;6.60;6.00;;;12.50;57.90;;;;;;5083319;28;20944;-51
2022/01/02 00:03:02;;;;;;;5.83;5.10;;;12.30;59.80;;;;;;5086536;28;20440;-52
2022/01/02 00:05:32;;;;;;;6.60;6.00;;;12.30;59.60;;;;;;5088523;28;20477;-52
2022/01/02 00:08:09;;;;;;;6.63;5.93;;;12.30;59.50;;;;;;5090687;28;20540;-51
2022/01/02 00:10:47;;;;;;;6.90;5.90;;;12.40;59.50;;;;;;5091004;28;20472;-51
2022/01/02 00:13:25;;;;;;;7.83;6.13;;;12.70;59.60;;;;;;5087967;28;20487;-53
2022/01/02 00:15:52;;;;;;;5.60;5.10;;;12.50;59.60;;;;;;5088979;28;20778;-51
2022/01/02 00:18:19;;;;;;;6.60;5.73;;;12.20;61.10;;;;;;5092286;28;20433;-50
2022/01/02 00:20:49;;;;;;;6.30;5.70;;;12.20;60.80;;;;;;5079021;28;20455;-51
2022/01/02 00:23:21;;;;;;;8.63;5.60;;;12.40;60.30;;;;;;5075644;28;20499;-52
2022/01/02 00:25:55;;;;;;;7.23;6.10;;;12.60;59.90;;;;;;5078981;28;20567;-52
2022/01/02 00:28:21;;;;;;;5.97;5.30;;;12.80;59.30;;;;;;5089608;28;20449;-51
2022/01/02 00:30:48;;;;;;;7.67;6.00;;;13.00;58.70;;;;;;5091388;28;20449;-52
2022/01/02 00:33:14;;;;;;;6.43;5.83;;;13.20;58.20;;;;;;5089595;28;20425;-52
2022/01/02 00:35:39;;;;;;;7.20;6.03;;;13.30;57.90;;;;;;5093626;28;20467;-49
2022/01/02 00:38:06;;;;;;;6.00;5.43;;;13.10;57.00;;;;;;5088267;28;20279;-51
2022/01/02 00:40:39;;;;;;;5.90;5.33;;;12.90;57.20;;;;;;5082489;28;20791;-50
2022/01/02 00:43:06;;;;;;;6.00;5.50;;;13.00;57.50;;;;;;5096029;28;20441;-50
2022/01/02 00:45:40;;;;;;;6.03;5.53;;;13.10;57.40;;;;;;5089318;28;20487;-50
2022/01/02 00:48:19;;;;;;;5.93;5.43;;;13.10;57.30;;;;;;5090253;28;20516;-52
2022/01/02 00:51:01;;;;;;;5.80;5.20;;;13.30;57.30;;;;;;5082114;28;20782;-53
2022/01/02 00:53:33;;;;;;;5.77;4.90;;;13.30;57.00;;;;;;5085604;28;20465;-51
2022/01/02 00:56:02;;;;;;;5.70;5.10;;;13.20;57.60;;;;;;5092109;28;20849;-49
2022/01/02 00:58:37;;;;;;;5.27;4.70;;;13.20;57.10;;;;;;5092442;28;20993;-49
2022/01/02 01:01:06;;;;;;;5.70;5.20;;;13.20;57.30;;;;;;5093932;28;20524;-50
2022/01/02 01:03:32;;;;;;;5.50;5.00;;;13.20;56.80;;;;;;5086227;28;20447;-48
2022/01/02 01:06:03;;;;;;;7.40;5.37;;;13.10;56.30;;;;;;5089709;28;20493;-48
2022/01/02 01:08:31;;;;;;;5.90;5.40;;;12.60;57.10;;;;;;5096908;28;20524;-52
2022/01/02 01:10:59;;;;;;;5.73;5.20;;;12.20;58.40;;;;;;5092098;28;20435;-48
2022/01/02 01:13:25;;;;;;;4.97;4.57;;;11.70;58.70;;;;;;5094378;28;20519;-52
2022/01/02 01:15:51;;;;;;;5.83;5.27;;;11.60;59.40;;;;;;5093532;28;20437;-50
2022/01/02 01:18:17;;;;;;;6.07;5.50;;;11.50;59.50;;;;;;5087070;28;20840;-49
2022/01/02 01:20:46;;;;;;;6.03;5.43;;;11.40;59.80;;;;;;5091099;28;20195;-49
2022/01/02 01:23:16;;;;;;;9.00;6.10;;;11.50;60.30;;;;;;5092021;28;20285;-49
2022/01/02 01:25:45;;;;;;;7.73;5.33;;;11.40;60.50;;;;;;5091980;28;20480;-49
2022/01/02 01:28:12;;;;;;;6.87;5.73;;;11.00;61.40;;;;;;5092573;28;20942;-50
2022/01/02 01:30:37;;;;;;;7.50;6.23;;;10.60;63.00;;;;;;5096412;28;20489;-52
2022/01/02 01:33:03;;;;;;;6.17;5.43;;;10.30;64.30;;;;;;5082849;28;20437;-49
2022/01/02 01:35:29;;;;;;;8.20;6.23;;;10.30;64.50;;;;;;5091204;28;20191;-52
2022/01/02 01:37:54;;;;;;;7.43;6.53;;;10.20;65.40;;;;;;5084472;28;20633;-52
2022/01/02 01:40:20;;;;;;;6.20;5.60;;;10.00;65.00;;;;;;5083277;28;20201;-53
2022/01/02 01:43:00;;;;;;;6.83;6.13;;;9.80;67.10;;;;;;5083031;28;20183;-51
2022/01/02 01:45:29;;;;;;;6.63;5.40;;;9.80;67.80;;;;;;5093974;28;20496;-53
2022/01/02 01:47:57;;;;;;;6.07;5.53;;;9.80;67.40;;;;;;5091715;28;20901;-52
2022/01/02 01:50:37;;;;;;;6.50;5.73;;;10.00;65.50;;;;;;5083781;28;20461;-53
2022/01/02 01:53:04;;;;;;;5.70;5.10;;;10.10;64.90;;;;;;5090455;28;20858;-53
2022/01/02 01:55:30;;;;;;;6.97;5.60;;;10.10;64.70;;;;;;5089441;28;20473;-52
2022/01/02 01:57:56;;;;;;;7.27;5.37;;;10.20;64.00;;;;;;5089041;28;20516;-53
2022/01/02 02:00:22;;;;;;;6.90;6.03;;;10.20;64.40;;;;;;5086633;28;20575;-52
2022/01/02 02:02:49;;;;;;;6.67;5.60;;;10.10;64.70;;;;;;5091717;28;20195;-53
2022/01/02 02:05:15;;;;;;;7.27;6.20;;;9.90;66.00;;;;;;5083271;28;20482;-51
2022/01/02 02:07:43;;;;;;;6.27;5.63;;;9.90;66.60;;;;;;5081865;28;20798;-53
2022/01/02 02:10:17;;;;;;;5.80;5.20;;;9.80;66.50;;;;;;5084348;28;20429;-49
2022/01/02 02:12:46;;;;;;;5.70;5.20;;;9.90;66.70;;;;;;5084773;28;20437;-49
2022/01/02 02:15:14;;;;;;;5.90;4.97;;;10.00;65.50;;;;;;5079328;28;20529;-53
2022/01/02 02:17:42;;;;;;;5.27;4.73;;;9.90;66.40;;;;;;5089821;28;20441;-52
2022/01/02 02:20:32;;;;;;;6.33;5.73;;;9.80;66.40;;;;;;5084530;28;20482;-52
2022/01/02 02:22:59;;;;;;;7.27;6.40;;;9.50;67.50;;;;;;5084925;28;20433;-51
2022/01/02 02:25:30;;;;;;;5.93;5.00;;;9.40;68.70;;;;;;5089309;28;20591;-53
2022/01/02 02:27:59;;;;;;;6.97;5.53;;;9.20;69.60;;;;;;5082720;28;20446;-52
2022/01/02 02:30:28;;;;;;;6.73;6.10;;;9.00;70.50;;;;;;5075033;28;20430;-52
2022/01/02 02:32:55;;;;;;;6.70;5.30;;;9.00;71.00;;;;;;5085673;28;20430;-51
2022/01/02 02:35:21;;;;;;;6.27;5.67;;;9.00;70.50;;;;;;5090049;28;20436;-52
2022/01/02 02:37:47;;;;;;;6.30;5.70;;;9.20;70.00;;;;;;5086393;28;20453;-51
2022/01/02 02:40:16;;;;;;;6.60;5.80;;;9.40;69.30;;;;;;5085305;28;20187;-52
2022/01/02 02:50:47;;;;;;;8.30;5.90;;;9.30;68.40;;;;;;5087549;28;20457;-53
2022/01/02 02:53:14;;;;;;;5.80;5.30;;;9.20;69.00;;;;;;5086409;28;20512;-51
2022/01/02 02:55:45;;;;;;;7.10;5.60;;;9.10;69.10;;;;;;5079131;28;20501;-53
2022/01/02 02:58:39;;;;;;;6.43;5.00;;;9.30;68.80;;;;;;5084868;28;20438;-51
2022/01/02 03:00:56;;;;;;;6.43;5.77;;;9.50;68.20;;;;;;5078633;28;20441;-53
2022/01/02 03:03:22;;;;;;;6.00;5.27;;;9.70;67.30;;;;;;5096026;28;20465;-50
2022/01/02 03:05:48;;;;;;;6.80;5.60;;;9.80;66.60;;;;;;5081626;28;20898;-51
2022/01/02 03:08:14;;;;;;;7.00;5.93;;;10.00;64.80;;;;;;5084164;28;20607;-52
2022/01/02 03:10:39;;;;;;;5.93;5.20;;;10.00;64.20;;;;;;5092091;28;20706;-52
2022/01/02 03:13:05;;;;;;;5.93;5.40;;;10.10;64.10;;;;;;5094906;27;20422;-48
2022/01/02 03:15:31;;;;;;;5.43;4.77;;;10.20;63.80;;;;;;5089859;28;20195;-52
2022/01/02 03:17:56;;;;;;;5.37;4.87;;;10.10;63.50;;;;;;5085280;28;20744;-52
2022/01/02 03:20:22;;;;;;;6.23;5.63;;;10.00;63.90;;;;;;5084806;28;20323;-50
2022/01/02 03:22:47;;;;;;;7.63;4.90;;;9.90;65.50;;;;;;5084566;28;20200;-48
2022/01/02 03:25:17;;;;;;;6.17;5.33;;;9.80;65.80;;;;;;5093299;28;20254;-51
2022/01/02 03:27:44;;;;;;;5.90;5.30;;;9.60;66.90;;;;;;5091594;28;20704;-49
2022/01/02 03:30:11;;;;;;;8.00;5.27;;;9.50;68.10;;;;;;5087908;28;20430;-53
2022/01/02 03:32:37;;;;;;;7.20;5.60;;;9.40;68.20;;;;;;5090011;28;20444;-47
2022/01/02 03:35:03;;;;;;;5.87;5.10;;;9.30;68.60;;;;;;5087389;28;20430;-50
2022/01/02 03:37:32;;;;;;;5.80;5.20;;;9.30;68.80;;;;;;5082826;28;20283;-48
2022/01/02 03:39:58;;;;;;;6.60;5.30;;;9.50;68.50;;;;;;5084798;28;20437;-52
2022/01/02 03:42:24;;;;;;;6.87;5.90;;;9.30;68.70;;;;;;5081371;28;20492;-51
2022/01/02 03:44:49;;;;;;;6.27;5.27;;;8.90;70.10;;;;;;5082987;28;20493;-54
2022/01/02 03:47:15;;;;;;;7.10;5.60;;;8.90;71.00;;;;;;5082855;28;20666;-54
2022/01/02 03:49:40;;;;;;;7.90;6.40;;;9.00;70.50;;;;;;5085250;28;20191;-52
2022/01/02 03:52:07;;;;;;;6.90;5.67;;;9.00;70.40;;;;;;5086758;28;20199;-51
2022/01/02 03:54:33;;;;;;;6.60;5.50;;;9.10;70.00;;;;;;5079001;28;20195;-52
2022/01/02 03:56:59;;;;;;;7.00;5.93;;;9.20;69.60;;;;;;5077623;28;20430;-51
2022/01/02 03:59:25;;;;;;;6.90;5.80;;;9.40;69.00;;;;;;5085326;28;20243;-48
2022/01/02 04:01:50;;;;;;;7.53;6.20;;;9.60;68.40;;;;;;5080988;28;20445;-52
2022/01/02 04:04:17;;;;;;;7.67;5.60;;;9.70;67.70;;;;;;5090687;28;20779;-52
2022/01/02 04:06:42;;;;;;;6.63;5.60;;;9.60;67.80;;;;;;5085734;28;20565;-51
2022/01/02 04:09:08;;;;;;;8.13;6.37;;;9.60;67.80;;;;;;5088175;28;20440;-49
2022/01/02 04:11:34;;;;;;;8.47;6.60;;;9.70;67.90;;;;;;5086813;28;20970;-49
2022/01/02 04:13:59;;;;;;;11.17;5.30;;;9.60;67.70;;;;;;5090205;28;20199;-49
2022/01/02 04:16:25;;;;;;;7.10;5.90;;;9.70;67.70;;;;;;5081209;28;20779;-52
2022/01/02 04:18:51;;;;;;;7.70;5.73;;;10.00;65.90;;;;;;5084306;28;20223;-48
2022/01/02 04:21:17;;;;;;;6.33;5.63;;;10.30;64.80;;;;;;5089165;28;20966;-48
2022/01/02 04:23:42;;;;;;;6.13;5.40;;;10.40;63.80;;;;;;5078673;28;20191;-49
2022/01/02 04:26:08;;;;;;;7.73;6.00;;;10.40;63.00;;;;;;5079422;28;20440;-51
2022/01/02 04:28:34;;;;;;;7.87;6.00;;;10.30;63.00;;;;;;5087853;28;20195;-50
2022/01/02 04:31:00;;;;;;;7.60;5.20;;;10.10;63.20;;;;;;5087241;28;20199;-50
2022/01/02 04:33:25;;;;;;;6.13;5.50;;;9.60;66.10;;;;;;5084353;28;20704;-48
2022/01/02 04:35:51;;;;;;;9.23;5.73;;;9.40;67.20;;;;;;5081711;28;20655;-50
2022/01/02 04:38:17;;;;;;;7.57;6.77;;;9.40;67.70;;;;;;5074772;28;20223;-48
2022/01/02 04:40:43;;;;;;;5.73;5.23;;;9.60;67.10;;;;;;5073676;28;20253;-49
2022/01/02 04:43:08;;;;;;;10.33;6.10;;;9.60;66.70;;;;;;5087554;28;20441;-49
2022/01/02 04:45:34;;;;;;;7.23;5.63;;;9.70;66.50;;;;;;5087187;28;20280;-49
2022/01/02 04:48:00;;;;;;;7.17;6.13;;;9.80;65.90;;;;;;5086309;28;20368;-49
2022/01/02 04:50:26;;;;;;;8.43;6.60;;;9.60;66.40;;;;;;5083559;28;20309;-50
2022/01/02 04:52:51;;;;;;;6.80;5.53;;;9.50;67.10;;;;;;5081486;28;20202;-50
2022/01/02 04:55:17;;;;;;;6.77;5.90;;;9.50;67.40;;;;;;5081830;28;20206;-49
2022/01/02 04:57:43;;;;;;;6.87;6.13;;;9.40;66.80;;;;;;5075182;28;20195;-48
2022/01/02 05:00:10;;;;;;;6.90;5.80;;;9.40;67.70;;;;;;5083252;28;20684;-49
2022/01/02 05:02:35;;;;;;;7.10;5.77;;;9.40;67.40;;;;;;5080960;28;20480;-50
2022/01/02 05:05:02;;;;;;;6.87;6.17;;;9.30;67.00;;;;;;5079802;28;20523;-51
2022/01/02 05:07:27;;;;;;;8.10;6.10;;;9.40;67.00;;;;;;5082462;28;20685;-49
2022/01/02 05:09:53;;;;;;;7.63;6.20;;;9.40;66.40;;;;;;5080745;28;20426;-48
2022/01/02 05:12:18;;;;;;;5.90;5.40;;;9.40;66.50;;;;;;5081716;28;20233;-48
2022/01/02 05:14:44;;;;;;;10.20;7.80;;;9.50;66.80;;;;;;5087573;28;20188;-49
2022/01/02 05:17:09;;;;;;;6.63;5.97;;;9.40;66.30;;;;;;5090883;28;20198;-49
2022/01/02 05:19:35;;;;;;;8.90;7.30;;;9.30;67.30;;;;;;5079009;28;20231;-52
2022/01/02 05:22:01;;;;;;;8.27;5.90;;;9.30;67.10;;;;;;5073949;28;20321;-49
2022/01/02 05:24:26;;;;;;;9.17;7.20;;;9.10;66.90;;;;;;5089906;28;20329;-50
2022/01/02 05:26:53;;;;;;;8.77;6.80;;;9.00;67.60;;;;;;5088649;28;20194;-49
2022/01/02 05:29:19;;;;;;;8.40;6.73;;;9.10;67.90;;;;;;5098541;28;20290;-48
2022/01/02 05:31:45;;;;;;;9.00;6.70;;;9.20;67.50;;;;;;5095222;28;20532;-48
2022/01/02 05:34:11;;;;;;;8.30;7.20;;;9.40;66.80;;;;;;5097305;28;20295;-50
2022/01/02 05:36:36;;;;;;;7.67;6.77;;;9.60;66.20;;;;;;5084993;28;20192;-48
2022/01/02 05:39:03;;;;;;;6.17;5.37;;;9.60;66.30;;;;;;5084201;28;20727;-48
2022/01/02 05:41:30;;;;;;;7.77;6.20;;;9.50;66.10;;;;;;5084290;28;20195;-49
2022/01/02 05:43:56;;;;;;;6.67;5.97;;;9.70;66.00;;;;;;5086380;28;20478;-48
2022/01/02 05:46:22;;;;;;;8.00;6.13;;;9.60;65.30;;;;;;5089097;28;20949;-49
2022/01/02 05:48:48;;;;;;;6.70;5.33;;;9.50;65.30;;;;;;5086145;28;20525;-50
2022/01/02 05:51:14;;;;;;;7.70;6.00;;;9.40;65.10;;;;;;5086325;28;20833;-49
2022/01/02 05:53:39;;;;;;;6.90;6.07;;;9.10;66.10;;;;;;5091595;28;20433;-49
2022/01/02 05:56:05;;;;;;;7.43;5.20;;;8.70;67.60;;;;;;5088637;28;20245;-50
2022/01/02 05:58:31;;;;;;;6.20;5.40;;;8.70;68.20;;;;;;5089648;28;20214;-51
2022/01/02 06:00:57;;;;;;;8.40;6.33;;;8.70;68.30;;;;;;5086346;28;20282;-49
2022/01/02 06:03:22;;;;;;;6.47;5.77;;;9.00;68.10;;;;;;5090159;28;20593;-52
2022/01/02 06:05:48;;;;;;;6.10;5.43;;;9.10;66.90;;;;;;5087867;28;20481;-53
2022/01/02 06:08:14;;;;;;;7.17;5.17;;;9.30;66.80;;;;;;5090606;28;20191;-53
2022/01/02 06:10:40;;;;;;;5.93;5.33;;;9.50;66.20;;;;;;5089878;28;20527;-53
2022/01/02 06:13:06;;;;;;;6.33;5.20;;;9.60;65.50;;;;;;5085514;28;20473;-54
2022/01/02 06:15:31;;;;;;;7.33;5.33;;;9.50;65.50;;;;;;5080639;28;20522;-54
2022/01/02 06:17:58;;;;;;;6.07;5.20;;;9.40;65.50;;;;;;5091896;28;20202;-53
2022/01/02 06:20:23;;;;;;;5.70;5.20;;;9.40;66.20;;;;;;5087553;28;20261;-52
2022/01/02 06:22:50;;;;;;;6.20;5.00;;;9.30;66.40;;;;;;5087608;28;20446;-51
2022/01/02 06:25:16;;;;;;;6.73;5.17;;;9.10;68.00;;;;;;5084998;28;20576;-53
2022/01/02 06:27:42;;;;;;;5.60;4.70;;;9.00;67.70;;;;;;5087443;28;20420;-52
2022/01/02 06:30:09;;;;;;;6.20;5.20;;;9.20;67.30;;;;;;5082723;28;20452;-49
2022/01/02 06:32:35;;;;;;;6.23;5.63;;;9.30;66.90;;;;;;5088881;28;20505;-51
2022/01/02 06:35:00;;;;;;;8.73;7.10;;;9.40;66.60;;;;;;5075266;28;21051;-52
2022/01/02 06:37:26;;;;;;;9.53;7.30;;;9.50;66.00;;;;;;5088196;28;20199;-52
2022/01/02 06:39:51;;;;;;;7.20;5.87;;;9.40;66.00;;;;;;5086010;28;20262;-53
2022/01/02 06:42:17;;;;;;;7.87;6.10;;;9.40;66.50;;;;;;5089623;28;20282;-51
2022/01/02 06:44:43;;;;;;;6.47;5.10;;;9.40;66.60;;;;;;5083637;28;20204;-50
2022/01/02 06:47:09;;;;;;;7.10;6.07;;;9.10;67.10;;;;;;5079446;28;20196;-52
2022/01/02 06:49:35;;;;;;;6.73;6.03;;;8.70;68.60;;;;;;5088027;28;20226;-52
2022/01/02 06:52:00;;;;;;;7.27;5.40;;;9.00;68.70;;;;;;5076596;28;20279;-50
2022/01/02 06:54:26;;;;;;;5.00;4.50;;;9.20;68.40;;;;;;5087719;28;20532;-50
2022/01/02 06:56:52;;;;;;;7.40;5.10;;;9.30;67.70;;;;;;5090180;28;20199;-50
2022/01/02 06:59:17;;;;;;;6.73;5.17;;;9.40;67.00;;;;;;5084400;28;20682;-51
2022/01/02 07:01:44;;;;;;;5.47;4.97;;;9.50;66.70;;;;;;5087402;28;20215;-52
2022/01/02 07:04:09;;;;;;;6.23;5.27;;;9.70;65.90;;;;;;5087673;28;20661;-49
2022/01/02 07:06:35;;;;;;;5.80;5.20;;;9.90;65.00;;;;;;5078539;28;20441;-49
2022/01/02 07:09:01;;;;;;;7.77;5.97;;;9.70;64.80;;;;;;5092018;28;20188;-52
2022/01/02 07:11:26;;;;;;;7.30;5.67;;;9.60;65.60;;;;;;5088449;28;20203;-52
2022/01/02 07:13:52;;;;;;;5.37;4.60;;;9.50;66.00;;;;;;5092924;28;20194;-51
2022/01/02 07:16:17;;;;;;;5.83;5.23;;;9.60;66.00;;;;;;5088898;28;20805;-51
2022/01/02 07:18:43;;;;;;;6.40;5.20;;;9.80;68.30;;;;;;5078384;28;20231;-50
2022/01/02 07:21:09;;;;;;;7.63;5.60;;;9.90;67.30;;;;;;5089451;28;20194;-52
2022/01/02 07:23:34;;;;;;;6.90;6.13;;;10.00;66.00;;;;;;5095304;28;20214;-52
2022/01/02 07:26:00;;;;;;;6.83;5.00;;;10.00;66.00;;;;;;5083216;28;20234;-48
2022/01/02 07:28:25;;;;;;;7.13;5.47;;;10.10;66.70;;;;;;5091908;28;20643;-50
2022/01/02 07:30:51;;;;;;;6.47;5.77;;;10.20;66.00;;;;;;5078640;28;20192;-52
2022/01/02 07:33:17;;;;;;;8.20;6.27;;;10.50;65.60;;;;;;5086797;28;20200;-51
2022/01/02 07:35:42;;;;;;;6.73;5.97;;;10.90;64.30;;;;;;5085587;28;20244;-50
2022/01/02 07:38:08;;;;;;;6.07;5.30;;;11.10;62.60;;;;;;5089580;28;20278;-50
2022/01/02 07:40:34;;;;;;;6.70;5.93;;;11.30;62.40;;;;;;5084174;28;20198;-51
2022/01/02 07:42:59;;;;;;;7.53;5.40;;;11.30;61.10;;;;;;5085635;28;20278;-49
2022/01/02 07:45:25;;;;;;;5.93;5.30;;;11.20;60.80;;;;;;5082761;28;20678;-49
2022/01/02 07:47:50;;;;;;;6.10;5.50;;;11.00;60.50;;;;;;5086219;28;20191;-52
2022/01/02 07:50:18;;;;;;;7.30;5.40;;;11.00;62.20;;;;;;5079412;28;20221;-50
2022/01/02 07:52:44;;;;;;;13.27;7.63;;;11.20;61.00;;;;;;5088314;28;20195;-50
2022/01/02 07:55:09;;;;;;;5.17;4.53;;;11.30;59.60;;;;;;5081874;28;21196;-49
2022/01/02 07:57:35;;;;;;;6.30;5.67;;;11.30;59.70;;;;;;5088861;28;20449;-50
2022/01/02 08:00:01;;;;;;;5.80;5.17;;;11.40;59.20;;;;;;5083426;28;20191;-52
2022/01/02 08:02:26;;;;;;;5.60;5.10;;;11.20;59.70;;;;;;5086211;28;20198;-53
2022/01/02 08:04:52;;;;;;;5.77;5.13;;;11.30;59.50;;;;;;5078873;28;20250;-53
2022/01/02 08:07:17;;;;;;;6.17;5.27;;;11.50;59.40;;;;;;5082035;28;20237;-49
2022/01/02 08:09:43;;;;;;;5.93;5.33;;;11.70;59.30;;;;;;5088130;28;20202;-51
2022/01/02 08:12:08;;;;;;;5.67;5.07;;;11.90;58.50;;;;;;5088218;28;20195;-50
2022/01/02 08:14:34;;;;;;;7.57;6.33;;;12.10;58.10;;;;;;5090000;28;20191;-50
2022/01/02 08:17:00;;;;;;;6.97;5.83;;;11.90;57.90;;;;;;5084399;28;20226;-50
2022/01/02 08:19:25;;;;;;;5.87;4.70;;;12.00;58.10;;;;;;5086343;28;20265;-50
2022/01/02 08:21:51;;;;;;;6.03;5.43;;;12.20;57.90;;;;;;5084726;28;20244;-51
2022/01/02 08:24:16;;;;;;;7.10;5.00;;;12.10;57.30;;;;;;5080284;28;20225;-49
2022/01/02 08:26:42;;;;;;;5.30;4.80;;;12.10;57.40;;;;;;5077249;28;20264;-49
2022/01/02 08:29:07;;;;;;;5.83;5.23;;;11.90;57.70;;;;;;5077674;28;20223;-52
2022/01/02 08:31:33;;;;;;;5.60;5.10;;;11.80;58.30;;;;;;5076408;28;20278;-50
2022/01/02 08:33:59;;;;;;;6.40;5.30;;;11.90;58.00;;;;;;5080095;28;20241;-49
2022/01/02 08:36:25;;;;;;;6.53;5.70;;;12.10;58.30;;;;;;5080271;28;20531;-51
2022/01/02 08:38:51;;;;;;;5.63;5.03;;;12.30;57.90;;;;;;5079654;28;20204;-51
2022/01/02 08:41:17;;;;;;;5.67;5.17;;;12.40;57.50;;;;;;5087884;28;20445;-50
2022/01/02 08:43:43;;;;;;;6.33;5.73;;;12.50;57.60;;;;;;5078410;28;20206;-49
2022/01/02 08:46:09;;;;;;;5.60;5.10;;;12.40;58.00;;;;;;5086382;28;20488;-51
2022/01/02 08:48:35;;;;;;;6.50;5.80;;;12.60;57.60;;;;;;5083523;28;20775;-50
2022/01/02 08:51:01;;;;;;;7.70;5.80;;;12.80;57.60;;;;;;5089339;28;20435;-50
2022/01/02 08:53:31;;;;;;;5.90;5.30;;;12.90;57.60;;;;;;5084695;28;20199;-50
2022/01/02 08:55:56;;;;;;;5.30;4.90;;;12.60;57.50;;;;;;5080738;28;20205;-50
2022/01/02 08:58:22;;;;;;;6.63;5.20;;;12.60;58.10;;;;;;5083408;28;20434;-50
2022/01/02 09:00:48;;;;;;;6.00;5.40;;;12.90;57.70;;;;;;5084886;28;20614;-49
2022/01/02 09:03:13;;;;;;;5.90;5.40;;;12.90;57.50;;;;;;5090515;28;20234;-49
2022/01/02 09:05:39;;;;;;;7.63;5.83;;;13.10;57.70;;;;;;5083208;28;20313;-49
2022/01/02 09:08:05;;;;;;;6.13;5.53;;;13.20;57.80;;;;;;5077726;28;20210;-49
2022/01/02 09:10:31;;;;;;;7.10;5.57;;;13.10;57.00;;;;;;5091310;28;20288;-50
2022/01/02 09:12:57;;;;;;;5.70;5.10;;;12.90;57.20;;;;;;5090433;28;20549;-51
2022/01/02 09:15:22;;;;;;;7.70;5.73;;;13.00;57.80;;;;;;5090662;28;20675;-50
2022/01/02 09:17:48;;;;;;;6.20;5.03;;;13.30;57.80;;;;;;5093206;28;20274;-51
2022/01/02 09:20:15;;;;;;;7.63;6.53;;;13.50;57.30;;;;;;5079001;28;20256;-50
2022/01/02 09:22:40;;;;;;;5.90;5.30;;;13.80;57.00;;;;;;5079670;28;20282;-50
2022/01/02 09:25:08;;;;;;;7.00;5.97;;;14.00;56.50;;;;;;5086598;28;20559;-51
2022/01/02 09:27:35;;;;;;;6.50;5.87;;;14.10;56.20;;;;;;5083628;28;20242;-50
2022/01/02 09:30:04;;;;;;;7.43;6.63;;;14.30;55.80;;;;;;5086563;28;20469;-50
2022/01/02 09:32:30;;;;;;;7.33;6.23;;;14.40;55.70;;;;;;5082895;28;20449;-51
2022/01/02 09:34:56;;;;;;;6.03;5.20;;;14.50;55.50;;;;;;5089641;28;20433;-49
2022/01/02 09:37:21;;;;;;;6.57;5.70;;;14.60;55.60;;;;;;5079948;28;20210;-51
2022/01/02 09:39:47;;;;;;;6.43;5.63;;;14.70;55.40;;;;;;5081456;28;20200;-51
2022/01/02 09:42:12;;;;;;;5.80;5.30;;;14.80;55.30;;;;;;5085484;28;20206;-50
2022/01/02 09:44:38;;;;;;;6.57;5.67;;;14.70;55.20;;;;;;5084988;28;20298;-51
2022/01/02 09:47:04;;;;;;;6.23;5.60;;;14.60;55.60;;;;;;5082501;28;20613;-51
2022/01/02 09:49:31;;;;;;;6.63;5.93;;;14.70;55.40;;;;;;5085713;28;20662;-54
2022/01/02 09:51:57;;;;;;;5.77;5.03;;;14.80;55.00;;;;;;5084129;28;20945;-51
2022/01/02 09:54:23;;;;;;;6.73;5.40;;;14.90;54.90;;;;;;5085221;28;20448;-50
2022/01/02 09:56:48;;;;;;;9.13;5.87;;;14.90;54.80;;;;;;5089816;28;20191;-54
2022/01/02 09:59:14;;;;;;;5.47;4.97;;;15.00;54.70;;;;;;5077888;28;20197;-51
2022/01/02 10:01:40;;;;;;;6.90;5.60;;;14.80;54.50;;;;;;5086642;28;20199;-50
2022/01/02 10:04:05;;;;;;;5.97;5.47;;;14.80;54.20;;;;;;5088299;28;20280;-50
2022/01/02 10:06:38;;;;;;;5.50;4.93;;;14.80;54.50;;;;;;5091496;28;20218;-50
2022/01/02 10:09:04;;;;;;;6.43;5.53;;;14.90;54.50;;;;;;5091637;28;20244;-51
2022/01/02 10:11:30;;;;;;;5.20;4.77;;;14.90;54.30;;;;;;5093036;28;20430;-50
2022/01/02 10:14:01;;;;;;;7.23;4.60;;;14.90;54.30;;;;;;5090663;28;20203;-53
2022/01/02 10:16:33;;;;;;;5.70;5.20;;;15.00;54.80;;;;;;5080656;28;20473;-50
2022/01/02 10:19:21;;;;;;;7.83;5.50;;;15.10;54.50;;;;;;5091648;28;20563;-50
2022/01/02 10:21:59;;;;;;;6.10;5.57;;;14.80;55.00;;;;;;5084476;28;20465;-49
2022/01/02 10:24:30;;;;;;;6.60;5.97;;;14.80;55.50;;;;;;5086038;28;20572;-53
2022/01/02 10:27:12;;;;;;;6.10;5.50;;;14.90;55.40;;;;;;5085058;28;20442;-53
2022/01/02 10:29:47;;;;;;;7.70;6.90;;;14.90;55.10;;;;;;5080147;28;20452;-53
2022/01/02 10:32:25;;;;;;;7.30;6.60;;;14.90;55.20;;;;;;5096093;28;20452;-51
2022/01/02 10:34:52;;;;;;;7.70;6.27;;;14.60;55.50;;;;;;5091598;28;20908;-51
2022/01/02 10:37:25;;;;;;;6.70;6.00;;;14.30;56.50;;;;;;5081221;28;20790;-50
2022/01/02 10:39:51;;;;;;;7.00;6.30;;;14.50;56.90;;;;;;5078187;28;21467;-50
2022/01/02 10:42:19;;;;;;;7.33;6.63;;;14.60;56.20;;;;;;5084756;28;20451;-50
2022/01/02 10:44:45;;;;;;;6.67;6.07;;;14.60;55.90;;;;;;5080513;28;20230;-50
2022/01/02 10:47:29;;;;;;;6.63;5.73;;;14.60;55.60;;;;;;5081746;28;20429;-50
2022/01/02 10:49:58;;;;;;;8.90;6.43;;;14.70;55.30;;;;;;5077614;28;20441;-49
2022/01/02 10:52:45;;;;;;;6.53;5.93;;;14.70;55.20;;;;;;5090189;28;21308;-51
2022/01/02 10:55:20;;;;;;;7.47;6.77;;;14.70;55.10;;;;;;5087354;28;21937;-52
2022/01/02 10:57:49;;;;;;;5.67;4.90;;;14.80;54.80;;;;;;5081584;28;20486;-49
2022/01/02 11:00:16;;;;;;;6.43;5.30;;;14.70;54.60;;;;;;5093882;28;20438;-50
2022/01/02 11:02:43;;;;;;;7.17;6.00;;;14.70;54.50;;;;;;5085110;28;20437;-49
2022/01/02 11:05:11;;;;;;;7.47;6.03;;;14.70;54.40;;;;;;5086472;28;20489;-55
2022/01/02 11:07:44;;;;;;;9.83;7.93;;;14.70;55.10;;;;;;5092273;28;20437;-49
2022/01/02 11:10:11;;;;;;;7.83;7.03;;;14.30;55.70;;;;;;5085157;28;20439;-51
2022/01/02 11:12:39;;;;;;;8.50;7.53;;;13.80;57.00;;;;;;5086098;28;20430;-51
2022/01/02 11:15:09;;;;;;;9.60;7.80;;;13.90;57.40;;;;;;5084457;28;20572;-49
2022/01/02 11:17:36;;;;;;;9.03;6.00;;;14.00;56.70;;;;;;5087374;28;20433;-51
2022/01/02 11:20:07;;;;;;;11.13;7.70;;;14.20;56.30;;;;;;5090701;28;20497;-50
2022/01/02 11:22:39;;;;;;;7.97;6.20;;;14.50;56.10;;;;;;5083307;28;20442;-50
2022/01/02 11:25:28;;;;;;;11.80;7.00;;;14.60;55.60;;;;;;5091722;28;20485;-51
2022/01/02 11:28:02;;;;;;;11.80;6.77;;;14.80;55.40;;;;;;5077990;28;20462;-49
2022/01/02 11:30:31;;;;;;;9.17;6.50;;;14.70;54.60;;;;;;5076015;28;20441;-49
2022/01/02 11:33:14;;;;;;;7.40;6.63;;;14.80;55.00;;;;;;5074509;28;20449;-50
2022/01/02 11:35:47;;;;;;;6.57;5.87;;;15.10;54.90;;;;;;5087831;28;20445;-50
2022/01/02 11:38:15;;;;;;;5.70;5.10;;;15.30;54.50;;;;;;5077514;28;20441;-49
2022/01/02 11:40:53;;;;;;;6.10;5.37;;;15.20;54.10;;;;;;5088750;28;20955;-49
2022/01/02 11:43:46;;;;;;;5.17;4.77;;;15.10;53.60;;;;;;5085389;28;20429;-50
2022/01/02 11:46:25;;;;;;;4.90;4.13;;;14.80;52.80;;;;;;5086001;28;20884;-50
2022/01/02 11:49:08;;;;;;;5.37;4.60;;;14.80;53.00;;;;;;5097638;28;20819;-50
2022/01/02 11:51:49;;;;;;;6.37;3.70;;;14.90;54.30;;;;;;5077275;28;20537;-50
2022/01/02 11:54:47;;;;;;;5.20;3.00;;;14.90;53.30;;;;;;5095328;28;20826;-51
2022/01/02 11:57:15;;;;;;;4.00;3.07;;;15.10;53.20;;;;;;5082480;28;20862;-52
2022/01/02 11:59:47;;;;;;;3.20;2.60;;;15.30;50.40;;;;;;5086770;28;20461;-54
2022/01/02 12:02:13;;;;;;;3.97;2.60;;;15.50;50.20;;;;;;5090211;28;20498;-49
2022/01/02 12:07:35;;;;;;;3.30;2.83;;;16.00;48.40;;;;;;5088491;28;20220;-54
2022/01/02 12:12:57;;;;;;;3.33;2.80;;;16.40;48.40;;;;;;5078882;28;20444;-54
2022/01/02 12:15:43;;;;;;;4.33;3.93;;;16.60;47.50;;;;;;5083839;28;20439;-50
2022/01/02 12:18:28;;;;;;;3.90;2.93;;;16.80;49.50;;;;;;5076900;28;20450;-53
2022/01/02 12:20:54;;;;;;;3.70;3.37;;;16.90;48.80;;;;;;5087547;28;20931;-53
2022/01/02 12:23:34;;;;;;;3.40;3.13;;;16.90;47.20;;;;;;5081357;28;20523;-51
2022/01/02 12:26:04;;;;;;;3.10;2.80;;;16.90;47.60;;;;;;5078729;28;20690;-51
2022/01/02 12:28:43;;;;;;;3.73;3.33;;;16.80;48.00;;;;;;5082927;28;20441;-52
2022/01/02 12:31:11;;;;;;;2.87;2.57;;;16.80;47.30;;;;;;5082457;28;20452;-53
2022/01/02 12:33:37;;;;;;;2.60;2.40;;;16.80;47.50;;;;;;5078628;28;20434;-49
2022/01/02 12:36:14;;;;;;;4.07;2.93;;;16.70;47.20;;;;;;5082190;28;20576;-53
2022/01/02 12:38:54;;;;;;;3.63;2.87;;;16.60;48.70;;;;;;5083192;28;22195;-49
2022/01/02 12:41:23;;;;;;;2.47;2.27;;;16.70;48.80;;;;;;5083495;28;20795;-53
2022/01/02 12:43:54;;;;;;;3.33;2.90;;;16.70;46.30;;;;;;5084473;28;20445;-52
2022/01/02 12:46:43;;;;;;;2.40;2.20;;;16.80;46.90;;;;;;5087738;28;20484;-53
2022/01/02 12:49:15;;;;;;;2.30;2.10;;;16.90;46.30;;;;;;5091417;28;20451;-53
2022/01/02 12:51:48;;;;;;;5.27;2.13;;;16.80;45.40;;;;;;5083990;28;20445;-52
2022/01/02 12:54:19;;;;;;;3.90;2.87;;;16.90;46.00;;;;;;5087581;28;20449;-54
2022/01/02 12:56:48;;;;;;;3.93;2.60;;;17.10;45.40;;;;;;5085490;28;20977;-52
2022/01/02 12:59:32;;;;;;;2.70;2.33;;;17.00;45.10;;;;;;5090089;28;20474;-53
2022/01/02 13:02:12;;;;;;;2.33;2.00;;;17.40;45.10;;;;;;5087328;28;20872;-49
2022/01/02 13:04:49;;;;;;;3.43;3.13;;;17.30;44.20;;;;;;5086491;28;20575;-52
2022/01/02 13:07:23;;;;;;;2.90;2.27;;;17.20;44.60;;;;;;5083619;28;20436;-50
2022/01/02 13:09:58;;;;;;;3.30;2.03;;;17.10;44.60;;;;;;5091024;28;20862;-53